createdAt,value
2022-11-20T00:01:43.658Z,15.02
2022-11-20T00:04:13.651Z,15.98
2022-11-20T00:06:42.670Z,14.40
2022-11-20T00:09:13.680Z,16.45
2022-11-20T00:11:42.291Z,16.20
2022-11-20T00:14:17.782Z,17.27
2022-11-20T00:16:46.430Z,16.52
2022-11-20T00:19:15.125Z,16.67
2022-11-20T00:21:43.989Z,15.57
2022-11-20T00:24:21.852Z,15.70
2022-11-20T00:26:51.070Z,15.05
2022-11-20T00:29:19.730Z,14.50
2022-11-20T00:31:48.770Z,16.00
2022-11-20T00:34:17.751Z,16.67
2022-11-20T00:36:55.078Z,15.00
2022-11-20T00:39:25.253Z,16.50
2022-11-20T00:41:54.902Z,14.82
2022-11-20T00:44:24.318Z,15.10
2022-11-20T00:46:53.083Z,15.50
2022-11-20T00:49:24.603Z,14.20
2022-11-20T00:51:53.291Z,14.63
2022-11-20T00:54:22.100Z,15.00
2022-11-20T00:56:55.094Z,12.80
2022-11-20T00:59:24.147Z,15.32
2022-11-20T01:01:53.356Z,15.10
2022-11-20T01:04:22.513Z,13.70
2022-11-20T01:06:51.297Z,15.57
2022-11-20T01:09:20.344Z,15.35
2022-11-20T01:11:52.501Z,14.23
2022-11-20T01:14:28.449Z,14.75
2022-11-20T01:16:57.032Z,13.65
2022-11-20T01:19:28.635Z,14.77
2022-11-20T01:21:57.952Z,12.75
2022-11-20T01:24:26.502Z,16.23
2022-11-20T01:26:55.391Z,13.82
2022-11-20T01:29:26.019Z,15.23
2022-11-20T01:31:56.236Z,15.07
2022-11-20T01:34:28.231Z,13.95
2022-11-20T01:36:56.626Z,14.27
2022-11-20T01:39:30.995Z,14.90
2022-11-20T01:42:20.134Z,13.65
2022-11-20T01:44:58.730Z,14.23
2022-11-20T01:47:39.435Z,12.20
2022-11-20T01:50:14.549Z,14.50
2022-11-20T01:52:47.022Z,13.60
2022-11-20T01:55:22.127Z,13.82
2022-11-20T01:57:51.857Z,14.82
2022-11-20T02:00:32.615Z,13.60
2022-11-20T02:03:06.542Z,12.38
2022-11-20T02:05:39.760Z,14.95
2022-11-20T02:08:09.455Z,15.30
2022-11-20T02:10:38.432Z,13.40
2022-11-20T02:13:28.301Z,14.43
2022-11-20T02:16:22.099Z,13.90
2022-11-20T02:19:07.096Z,14.25
2022-11-20T02:21:59.397Z,13.18
2022-11-20T02:24:45.467Z,14.32
2022-11-20T02:27:26.901Z,12.70
2022-11-20T02:29:59.122Z,13.90
2022-11-20T02:32:31.137Z,13.23
2022-11-20T02:34:59.885Z,12.45
2022-11-20T02:37:35.265Z,13.13
2022-11-20T02:40:27.133Z,13.30
2022-11-20T02:42:56.896Z,12.80
2022-11-20T02:45:28.850Z,13.90
2022-11-20T02:48:00.443Z,13.50
2022-11-20T02:50:29.351Z,13.68
2022-11-20T02:52:58.562Z,13.52
2022-11-20T02:55:28.543Z,13.05
2022-11-20T02:58:00.081Z,14.00
2022-11-20T03:00:31.681Z,13.32
2022-11-20T03:03:00.671Z,13.23
2022-11-20T03:05:29.325Z,13.70
2022-11-20T03:07:57.970Z,12.48
2022-11-20T03:10:33.319Z,11.63
2022-11-20T03:13:05.493Z,12.15
2022-11-20T03:15:40.747Z,12.23
2022-11-20T03:18:10.578Z,11.43
2022-11-20T03:20:45.315Z,12.85
2022-11-20T03:23:14.865Z,11.38
2022-11-20T03:25:44.818Z,13.75
2022-11-20T03:28:13.453Z,12.82
2022-11-20T03:30:45.015Z,13.75
2022-11-20T03:33:17.417Z,13.05
2022-11-20T03:36:02.169Z,13.18
2022-11-20T03:38:59.430Z,12.23
2022-11-20T03:42:07.200Z,12.98
2022-11-20T03:44:53.471Z,12.65
2022-11-20T03:47:32.395Z,12.43
2022-11-20T03:50:30.414Z,13.32
2022-11-20T03:53:19.312Z,10.32
2022-11-20T03:55:50.262Z,10.88
2022-11-20T03:58:44.938Z,10.55
2022-11-20T04:01:54.698Z,11.57
2022-11-20T04:04:32.362Z,10.77
2022-11-20T04:07:02.550Z,11.38
2022-11-20T04:09:42.500Z,12.55
2022-11-20T04:12:20.858Z,10.73
2022-11-20T04:15:19.513Z,11.77
2022-11-20T04:18:01.758Z,12.70
2022-11-20T04:20:44.165Z,11.98
2022-11-20T04:23:28.847Z,11.68
2022-11-20T04:26:28.763Z,12.93
2022-11-20T04:29:28.153Z,12.40
2022-11-20T04:32:07.409Z,13.15
2022-11-20T04:34:52.184Z,12.68
2022-11-20T04:37:23.846Z,13.02
2022-11-20T04:39:55.068Z,13.40
2022-11-20T04:42:32.692Z,11.93
2022-11-20T04:45:01.570Z,13.40
2022-11-20T04:47:31.491Z,12.32
2022-11-20T04:50:16.542Z,12.60
2022-11-20T04:52:47.668Z,13.30
2022-11-20T04:55:19.053Z,14.13
2022-11-20T04:57:53.261Z,12.35
2022-11-20T05:00:22.060Z,13.75
2022-11-20T05:02:52.222Z,12.85
2022-11-20T05:05:23.690Z,13.40
2022-11-20T05:07:55.308Z,13.10
2022-11-20T05:10:27.181Z,13.65
2022-11-20T05:12:55.899Z,13.07
2022-11-20T05:15:24.746Z,13.40
2022-11-20T05:17:56.021Z,12.70
2022-11-20T05:20:28.167Z,13.10
2022-11-20T05:22:59.733Z,11.55
2022-11-20T05:25:28.266Z,12.68
2022-11-20T05:27:56.712Z,12.30
2022-11-20T05:30:45.030Z,12.77
2022-11-20T05:33:41.212Z,12.57
2022-11-20T05:36:33.521Z,10.88
2022-11-20T05:39:40.825Z,12.95
2022-11-20T05:42:26.805Z,12.85
2022-11-20T05:44:55.403Z,12.60
2022-11-20T05:47:23.860Z,13.13
2022-11-20T05:49:54.791Z,12.40
2022-11-20T05:52:23.666Z,12.90
2022-11-20T05:54:52.928Z,12.75
2022-11-20T05:57:24.289Z,12.23
2022-11-20T05:59:53.480Z,13.30
2022-11-20T06:02:24.669Z,12.90
2022-11-20T06:04:57.797Z,15.35
2022-11-20T06:07:29.411Z,11.98
2022-11-20T06:09:58.230Z,13.00
2022-11-20T06:12:27.406Z,12.93
2022-11-20T06:14:59.674Z,13.75
2022-11-20T06:17:28.424Z,14.10
2022-11-20T06:20:01.492Z,14.60
2022-11-20T06:22:41.672Z,13.23
2022-11-20T06:25:37.749Z,14.35
2022-11-20T06:28:06.607Z,15.63
2022-11-20T06:30:37.984Z,13.55
2022-11-20T06:33:07.047Z,14.43
2022-11-20T06:35:37.698Z,14.57
2022-11-20T06:38:12.886Z,12.30
2022-11-20T06:40:50.487Z,13.25
2022-11-20T06:43:19.017Z,12.90
2022-11-20T06:45:51.151Z,12.45
2022-11-20T06:48:23.593Z,10.75
2022-11-20T06:51:00.661Z,12.32
2022-11-20T06:53:44.076Z,12.13
2022-11-20T06:56:12.597Z,11.98
2022-11-20T06:58:41.008Z,15.10
2022-11-20T07:01:13.144Z,13.75
2022-11-20T07:03:42.794Z,12.43
2022-11-20T07:06:13.203Z,12.88
2022-11-20T07:08:41.876Z,11.98
2022-11-20T07:11:15.060Z,12.93
2022-11-20T07:13:46.779Z,12.98
2022-11-20T07:16:15.511Z,13.85
2022-11-20T07:18:52.778Z,13.10
2022-11-20T07:21:25.197Z,13.38
2022-11-20T07:23:53.814Z,15.13
2022-11-20T07:26:22.674Z,14.07
2022-11-20T07:29:00.094Z,16.80
2022-11-20T07:31:28.950Z,16.58
2022-11-20T07:34:04.567Z,16.65
2022-11-20T07:36:35.095Z,16.35
2022-11-20T07:39:03.563Z,15.82
2022-11-20T07:41:32.269Z,16.70
2022-11-20T07:47:23.179Z,16.52
2022-11-20T07:50:07.586Z,15.63
2022-11-20T07:52:37.985Z,15.80
2022-11-20T07:55:07.568Z,16.90
2022-11-20T07:57:36.793Z,14.50
2022-11-20T08:00:17.992Z,13.45
2022-11-20T08:03:00.929Z,12.65
2022-11-20T08:06:15.398Z,12.10
2022-11-20T08:08:54.005Z,12.40
2022-11-20T08:11:43.248Z,11.55
2022-11-20T08:14:28.727Z,12.50
2022-11-20T08:17:04.547Z,11.75
2022-11-20T08:19:32.959Z,11.65
2022-11-20T08:22:04.519Z,13.35
2022-11-20T08:24:37.370Z,10.63
2022-11-20T08:27:14.477Z,13.68
2022-11-20T08:29:52.280Z,12.23
2022-11-20T08:32:23.308Z,12.95
2022-11-20T08:34:59.445Z,11.48
2022-11-20T08:37:29.925Z,11.30
2022-11-20T08:40:01.827Z,12.52
2022-11-20T08:42:33.192Z,11.43
2022-11-20T08:45:01.469Z,11.30
2022-11-20T08:47:44.371Z,11.95
2022-11-20T08:50:15.517Z,11.63
2022-11-20T08:52:46.786Z,11.82
2022-11-20T08:55:17.090Z,9.77
2022-11-20T08:57:57.472Z,10.90
2022-11-20T09:00:26.106Z,9.35
2022-11-20T09:02:57.290Z,10.07
2022-11-20T09:05:25.958Z,9.18
2022-11-20T09:07:55.502Z,9.80
2022-11-20T09:10:31.602Z,9.23
2022-11-20T09:13:00.522Z,8.95
2022-11-20T09:15:30.266Z,9.32
2022-11-20T09:18:00.754Z,9.82
2022-11-20T09:20:30.851Z,10.00
2022-11-20T09:23:02.429Z,10.25
2022-11-20T09:25:32.615Z,10.43
2022-11-20T09:28:17.410Z,9.80
2022-11-20T09:30:48.831Z,10.25
2022-11-20T09:33:17.861Z,9.90
2022-11-20T09:36:04.209Z,10.48
2022-11-20T09:38:32.613Z,11.18
2022-11-20T09:41:07.111Z,9.63
2022-11-20T09:43:51.428Z,10.57
2022-11-20T09:46:28.629Z,8.98
2022-11-20T09:49:17.078Z,9.60
2022-11-20T09:51:55.842Z,8.88
2022-11-20T09:54:30.882Z,11.70
2022-11-20T09:57:03.850Z,12.18
2022-11-20T09:59:38.556Z,11.23
2022-11-20T10:02:18.545Z,11.30
2022-11-20T10:04:51.767Z,11.20
2022-11-20T10:07:33.455Z,11.68
2022-11-20T10:10:05.563Z,10.50
2022-11-20T10:12:52.342Z,11.93
2022-11-20T10:15:31.592Z,11.85
2022-11-20T10:18:25.737Z,10.50
2022-11-20T10:21:08.661Z,10.98
2022-11-20T10:24:06.238Z,11.60
2022-11-20T10:26:59.607Z,12.10
2022-11-20T10:29:35.767Z,11.60
2022-11-20T10:32:06.623Z,11.85
2022-11-20T10:34:40.993Z,12.43
2022-11-20T10:37:15.270Z,12.60
2022-11-20T10:39:54.012Z,11.93
2022-11-20T10:42:33.507Z,11.68
2022-11-20T10:45:26.888Z,12.80
2022-11-20T10:47:59.228Z,14.60
2022-11-20T10:50:28.547Z,12.75
2022-11-20T10:53:06.213Z,12.77
2022-11-20T10:55:54.361Z,12.88
2022-11-20T10:58:35.354Z,13.80
2022-11-20T11:01:15.725Z,12.82
2022-11-20T11:03:45.638Z,13.95
2022-11-20T11:06:24.578Z,14.02
2022-11-20T11:08:59.089Z,12.88
2022-11-20T11:11:32.210Z,13.73
2022-11-20T11:14:08.370Z,12.77
2022-11-20T11:16:52.834Z,14.55
2022-11-20T11:19:22.146Z,15.35
2022-11-20T11:21:55.679Z,15.40
2022-11-20T11:24:43.081Z,14.32
2022-11-20T11:27:18.000Z,14.52
2022-11-20T11:29:47.798Z,14.82
2022-11-20T11:32:24.930Z,14.85
2022-11-20T11:35:20.946Z,14.23
2022-11-20T11:38:14.805Z,13.35
2022-11-20T11:40:45.988Z,14.15
2022-11-20T11:43:49.022Z,13.90
2022-11-20T11:47:00.360Z,14.32
2022-11-20T11:49:38.515Z,14.13
2022-11-20T11:52:20.862Z,15.45
2022-11-20T11:54:57.445Z,14.90
2022-11-20T11:57:32.408Z,13.63
2022-11-20T12:00:07.069Z,12.55
2022-11-20T12:03:03.402Z,12.98
2022-11-20T12:05:41.488Z,12.10
2022-11-20T12:08:25.560Z,12.85
2022-11-20T12:11:03.341Z,14.35
2022-11-20T12:13:51.954Z,12.50
2022-11-20T12:16:30.125Z,11.82
2022-11-20T12:19:01.816Z,13.13
2022-11-20T12:22:02.506Z,12.20
2022-11-20T12:25:06.716Z,12.95
2022-11-20T12:28:20.436Z,11.90
2022-11-20T12:31:00.009Z,11.85
2022-11-20T12:33:52.040Z,12.18
2022-11-20T12:36:36.593Z,11.15
2022-11-20T12:39:29.728Z,11.30
2022-11-20T12:42:42.743Z,12.07
2022-11-20T12:45:23.307Z,14.90
2022-11-20T12:48:05.281Z,11.95
2022-11-20T12:51:08.206Z,11.30
2022-11-20T12:53:42.657Z,19.65
2022-11-20T12:56:24.678Z,20.65
2022-11-20T12:59:10.055Z,11.40
2022-11-20T13:01:48.765Z,13.73
2022-11-20T13:04:32.276Z,16.73
2022-11-20T13:07:02.110Z,17.20
2022-11-20T13:09:36.339Z,13.73
2022-11-20T13:12:08.794Z,12.10
2022-11-20T13:14:42.922Z,13.32
2022-11-20T13:17:16.767Z,15.75
2022-11-20T13:19:57.058Z,13.00
2022-11-20T13:22:47.324Z,13.35
2022-11-20T13:25:30.539Z,19.27
2022-11-20T13:28:01.452Z,13.50
2022-11-20T13:30:31.677Z,13.15
2022-11-20T13:33:13.748Z,12.73
2022-11-20T13:35:58.394Z,14.30
2022-11-20T13:38:28.850Z,12.60
2022-11-20T13:41:29.148Z,15.63
2022-11-20T13:44:19.633Z,14.18
2022-11-20T13:46:48.878Z,15.93
2022-11-20T13:49:24.492Z,14.68
2022-11-20T13:52:01.221Z,27.67
2022-11-20T13:54:57.339Z,32.63
2022-11-20T13:58:01.275Z,19.33
2022-11-20T14:00:45.656Z,14.52
2022-11-20T14:03:43.755Z,15.02
2022-11-20T14:06:16.757Z,16.63
2022-11-20T14:08:51.906Z,14.15
2022-11-20T14:11:27.478Z,14.77
2022-11-20T14:13:59.610Z,15.55
2022-11-20T14:16:33.277Z,19.02
2022-11-20T14:19:42.482Z,16.60
2022-11-20T14:22:20.923Z,15.50
2022-11-20T14:24:50.486Z,15.65
2022-11-20T14:27:21.833Z,15.27
2022-11-20T14:29:53.010Z,15.50
2022-11-20T14:32:29.477Z,16.20
2022-11-20T14:35:03.742Z,31.40
2022-11-20T14:37:38.458Z,34.13
2022-11-20T14:40:24.768Z,20.88
2022-11-20T14:42:58.258Z,19.45
2022-11-20T14:45:38.699Z,21.35
2022-11-20T14:48:11.873Z,19.15
2022-11-20T14:50:41.480Z,17.33
2022-11-20T14:53:12.778Z,19.80
2022-11-20T14:55:58.564Z,21.33
2022-11-20T14:58:34.733Z,20.92
2022-11-20T15:01:05.976Z,21.45
2022-11-20T15:03:40.592Z,21.00
2022-11-20T15:06:14.992Z,19.90
2022-11-20T15:08:53.141Z,20.75
2022-11-20T15:11:25.525Z,21.98
2022-11-20T15:14:00.650Z,19.13
2022-11-20T15:16:31.802Z,23.05
2022-11-20T15:19:04.517Z,24.45
2022-11-20T15:21:32.794Z,22.50
2022-11-20T15:24:04.130Z,21.10
2022-11-20T15:26:34.921Z,21.92
2022-11-20T15:29:04.013Z,21.55
2022-11-20T15:31:32.314Z,19.83
2022-11-20T15:34:08.034Z,21.77
2022-11-20T15:36:36.685Z,20.85
2022-11-20T15:39:08.578Z,23.50
2022-11-20T15:41:40.344Z,22.95
2022-11-20T15:44:11.363Z,21.75
2022-11-20T15:46:46.176Z,21.40
2022-11-20T15:49:19.680Z,21.02
2022-11-20T15:51:51.412Z,23.58
2022-11-20T15:54:22.485Z,22.98
2022-11-20T15:56:53.270Z,24.73
2022-11-20T15:59:21.697Z,24.70
2022-11-20T16:01:50.130Z,23.17
2022-11-20T16:04:20.708Z,24.40
2022-11-20T16:06:49.230Z,24.40
2022-11-20T16:09:17.659Z,25.98
2022-11-20T16:11:46.707Z,23.35
2022-11-20T16:14:46.462Z,24.15
2022-11-20T16:17:18.282Z,23.77
2022-11-20T16:19:48.087Z,24.73
2022-11-20T16:22:16.351Z,23.85
2022-11-20T16:24:51.340Z,23.55
2022-11-20T16:27:20.821Z,23.42
2022-11-20T16:29:49.918Z,24.77
2022-11-20T16:32:21.222Z,23.67
2022-11-20T16:34:55.203Z,24.13
2022-11-20T16:37:23.926Z,24.45
2022-11-20T16:40:03.265Z,21.85
2022-11-20T16:42:35.818Z,19.83
2022-11-20T16:45:09.911Z,20.92
2022-11-20T16:47:38.232Z,19.83
2022-11-20T16:50:09.182Z,22.45
2022-11-20T16:52:37.740Z,23.48
2022-11-20T16:55:13.190Z,24.10
2022-11-20T16:57:42.716Z,20.58
2022-11-20T17:00:12.175Z,21.73
2022-11-20T17:02:43.379Z,32.22
2022-11-20T17:05:13.165Z,25.20
2022-11-20T17:07:41.724Z,22.85
2022-11-20T17:10:13.513Z,26.13
2022-11-20T17:12:44.614Z,25.60
2022-11-20T17:15:13.075Z,30.25
2022-11-20T17:17:44.476Z,36.25
2022-11-20T17:20:14.408Z,37.10
2022-11-20T17:22:48.609Z,36.70
2022-11-20T17:25:16.934Z,33.70
2022-11-20T17:27:48.082Z,26.25
2022-11-20T17:30:21.990Z,23.85
2022-11-20T17:32:50.323Z,24.10
2022-11-20T17:35:25.641Z,23.10
2022-11-20T17:38:05.567Z,26.65
2022-11-20T17:40:36.746Z,31.10
2022-11-20T17:43:05.113Z,26.23
2022-11-20T17:45:36.708Z,26.73
2022-11-20T17:48:05.796Z,24.35
2022-11-20T17:50:35.862Z,23.13
2022-11-20T17:53:04.778Z,26.77
2022-11-20T17:55:55.824Z,33.38
2022-11-20T17:58:23.695Z,31.52
2022-11-20T18:00:55.074Z,31.08
2022-11-20T18:03:26.387Z,30.90
2022-11-20T18:06:17.155Z,27.77
2022-11-20T18:08:48.961Z,22.08
2022-11-20T18:11:21.553Z,20.40
2022-11-20T18:14:15.498Z,20.00
2022-11-20T18:16:46.413Z,21.15
2022-11-20T18:19:32.733Z,19.65
2022-11-20T18:22:22.960Z,19.60
2022-11-20T18:24:57.266Z,28.02
2022-11-20T18:27:32.020Z,40.17
2022-11-20T18:30:25.960Z,22.50
2022-11-20T18:32:55.528Z,28.50
2022-11-20T18:35:36.046Z,35.00
2022-11-20T18:38:37.558Z,26.70
2022-11-20T18:41:41.446Z,27.80
2022-11-20T18:47:56.951Z,20.17
2022-11-20T18:50:43.260Z,18.75
2022-11-20T18:53:28.484Z,19.30
2022-11-20T18:56:09.681Z,20.23
2022-11-20T18:59:03.815Z,22.02
2022-11-20T19:01:59.129Z,24.08
2022-11-20T19:04:52.757Z,25.38
2022-11-20T19:10:54.953Z,26.83
2022-11-20T19:13:39.934Z,24.42
2022-11-20T19:16:24.872Z,21.10
2022-11-20T19:19:16.611Z,19.33
2022-11-20T19:21:59.138Z,17.60
2022-11-20T19:24:46.485Z,18.02
2022-11-20T19:27:16.494Z,17.90
2022-11-20T19:29:45.530Z,17.77
2022-11-20T19:32:33.375Z,17.98
2022-11-20T19:35:42.641Z,18.77
2022-11-20T19:38:25.735Z,26.80
2022-11-20T19:41:06.533Z,27.23
2022-11-20T19:43:37.954Z,26.80
2022-11-20T19:46:33.842Z,26.75
2022-11-20T19:49:25.463Z,27.25
2022-11-20T19:52:05.034Z,29.42
2022-11-20T19:54:36.747Z,27.23
2022-11-20T19:57:08.985Z,28.10
2022-11-20T19:59:39.259Z,28.50
2022-11-20T20:02:12.844Z,29.40
2022-11-20T20:04:42.137Z,26.45
2022-11-20T20:07:14.500Z,26.90
2022-11-20T20:09:43.917Z,22.70
2022-11-20T20:12:19.720Z,21.67
2022-11-20T20:15:10.048Z,19.58
2022-11-20T20:18:14.287Z,18.40
2022-11-20T20:21:04.507Z,19.58
2022-11-20T20:23:35.063Z,20.40
2022-11-20T20:26:04.744Z,16.98
2022-11-20T20:28:33.999Z,16.08
2022-11-20T20:31:10.349Z,19.33
2022-11-20T20:33:42.215Z,18.55
2022-11-20T20:36:21.934Z,18.88
2022-11-20T20:39:02.922Z,19.10
2022-11-20T20:41:39.845Z,20.00
2022-11-20T20:44:32.656Z,20.75
2022-11-20T20:47:03.270Z,20.23
2022-11-20T20:49:34.734Z,16.95
2022-11-20T20:52:05.018Z,17.50
2022-11-20T20:54:35.397Z,18.38
2022-11-20T20:57:04.232Z,18.92
2022-11-20T20:59:33.502Z,17.42
2022-11-20T21:02:03.799Z,18.10
2022-11-20T21:04:32.325Z,15.82
2022-11-20T21:07:00.908Z,16.90
2022-11-20T21:09:32.809Z,17.58
2022-11-20T21:12:08.034Z,17.48
2022-11-20T21:14:37.263Z,16.25
2022-11-20T21:17:14.967Z,16.90
2022-11-20T21:19:49.965Z,22.20
2022-11-20T21:22:21.242Z,21.98
2022-11-20T21:24:59.246Z,19.90
2022-11-20T21:27:31.287Z,21.77
2022-11-20T21:30:03.186Z,27.77
2022-11-20T21:32:41.779Z,22.10
2022-11-20T21:35:13.746Z,21.23
2022-11-20T21:37:45.931Z,20.00
2022-11-20T21:40:25.484Z,20.73
2022-11-20T21:42:57.394Z,18.92
2022-11-20T21:45:29.163Z,19.85
2022-11-20T21:47:59.300Z,18.85
2022-11-20T21:50:32.268Z,20.13
2022-11-20T21:53:10.663Z,20.65
2022-11-20T21:55:48.238Z,18.65
2022-11-20T21:58:19.988Z,20.83
2022-11-20T22:01:03.045Z,19.00
2022-11-20T22:03:40.697Z,18.10
2022-11-20T22:06:11.543Z,20.60
2022-11-20T22:08:42.674Z,19.23
2022-11-20T22:11:28.444Z,18.55
2022-11-20T22:14:30.546Z,19.25
2022-11-20T22:17:05.111Z,22.33
2022-11-20T22:19:37.841Z,26.55
2022-11-20T22:22:20.930Z,25.90
2022-11-20T22:24:52.049Z,20.70
2022-11-20T22:27:23.350Z,19.80
2022-11-20T22:29:52.401Z,16.90
2022-11-20T22:32:21.081Z,22.55
2022-11-20T22:34:52.011Z,21.20
2022-11-20T22:37:23.207Z,18.55
2022-11-20T22:39:51.829Z,18.25
2022-11-20T22:42:23.465Z,18.48
2022-11-20T22:44:52.448Z,16.98
2022-11-20T22:47:21.194Z,19.10
2022-11-20T22:49:50.998Z,20.40
2022-11-20T22:52:20.247Z,19.40
2022-11-20T22:54:51.586Z,19.90
2022-11-20T22:57:25.745Z,20.83
2022-11-20T22:59:57.038Z,22.20
2022-11-20T23:02:25.460Z,21.38
2022-11-20T23:04:55.351Z,20.75
2022-11-20T23:07:35.939Z,21.90
2022-11-20T23:10:07.987Z,22.40
2022-11-20T23:12:39.255Z,23.25
2022-11-20T23:15:10.092Z,22.52
2022-11-20T23:17:38.543Z,22.80
2022-11-20T23:20:10.518Z,22.15
2022-11-20T23:22:41.373Z,24.08
2022-11-20T23:25:12.951Z,23.88
2022-11-20T23:27:41.538Z,22.85
2022-11-20T23:30:15.906Z,25.73
2022-11-20T23:32:44.233Z,23.27
2022-11-20T23:35:14.403Z,23.17
2022-11-20T23:37:43.917Z,27.45
2022-11-20T23:40:13.469Z,25.42
2022-11-20T23:43:02.345Z,24.73
2022-11-20T23:45:31.367Z,23.17
2022-11-20T23:47:59.770Z,25.13
2022-11-20T23:50:59.255Z,25.27
2022-11-20T23:53:31.584Z,26.25
2022-11-20T23:56:02.945Z,24.50
2022-11-20T23:58:42.903Z,24.60
